Latest Weather Observations for Rolleston Airport

IDQ60801

Issued at 7:32 pm EST Tuesday 1 September 2015 (issued every 30 minutes, with the page automatically refreshed every 10 minutes)

About weather observations | Map of weather stations | Latest weather observations for QLD | Other Formats
Station Details ID: 035129 Name: ROLLESTON AIRPORT Lat: -24.46 Lon: 148.63 Height: 219.45 m
Data from the previous 72 hours. | See also: Recent months at Rolleston Airport
Date/Time
EST
Temp
°C
App
Temp
°C
Dew
Point
Rel
Hum
%
Delta-T
°C
Wind Press
QNH
hPa
Press
MSL
hPa
Rain
since 9 am
mm
Dir
 
Spd
km/h
Gust
km/h
Spd
kts
Gust
kts
01/07:30pm 18.6 15.2 2.0 33 7.6 ENE 9 9 5 5 1015.8 1015.2 0.0
01/07:00pm 18.1 15.1 2.0 34 7.4 NE 7 11 4 6 1015.3 1014.7 0.0
01/06:30pm 21.0 19.0 0.2 25 9.4 CALM 0 0 0 0 1014.9 1014.2 0.0
01/06:00pm 22.1 20.2 0.6 24 9.9 CALM 0 2 0 1 1014.7 1014.0 0.0
01/05:30pm 24.0 21.6 -0.3 20 11.2 NNW 2 6 1 3 1014.7 1014.0 0.0
01/05:00pm 25.2 22.1 0.0 19 11.7 WNW 6 9 3 5 1014.6 1013.9 0.0
01/04:30pm 25.1 22.5 -1.6 17 12.1 NNW 2 9 1 5 1014.5 1013.8 0.0
01/04:00pm 25.8 22.4 -0.3 18 12.1 NNW 7 11 4 6 1014.6 1013.9 0.0
01/03:30pm 25.4 22.7 0.1 19 11.8 NW 4 9 2 5 1014.5 1013.8 0.0
01/03:00pm 25.4 21.2 -0.6 18 12.0 NW 11 19 6 10 1014.8 1014.1 0.0
01/02:30pm 25.1 21.4 -0.1 19 11.7 NNW 9 28 5 15 1015.2 1014.5 0.0
01/02:00pm 24.9 21.3 0.4 20 11.5 WNW 9 22 5 12 1015.7 1015.1 0.0
01/01:30pm 24.2 20.2 0.5 21 11.1 N 11 20 6 11 1016.2 1015.6 0.0
01/01:00pm 23.9 20.0 0.9 22 10.8 WNW 11 17 6 9 1016.8 1016.1 0.0
01/12:30pm 22.7 18.6 -0.1 22 10.4 N 11 17 6 9 1017.5 1016.8 0.0
01/12:00pm 22.5 19.2 0.4 23 10.1 NNE 7 17 4 9 1018.1 1017.4 0.0
01/11:30am 21.7 18.4 0.3 24 9.8 W 7 11 4 6 1018.9 1018.2 0.0
01/11:00am 21.1 18.8 0.3 25 9.4 ENE 2 6 1 3 1019.6 1019.0 0.0
01/10:30am 19.8 16.1 -0.2 26 8.9 ESE 9 15 5 8 1020.0 1019.4 0.0
01/10:00am 19.1 16.0 1.6 31 8.0 NE 7 11 4 6 1020.3 1019.7 0.0
01/09:30am 16.4 14.3 3.8 43 5.9 SW 4 7 2 4 1020.5 1020.2 0.0
01/09:00am 14.4 13.1 4.1 50 4.8 CALM 0 4 0 2 1020.6 1020.3 0.0
01/08:30am 12.0 10.7 4.0 58 3.6 CALM 0 0 0 0 1020.5 1020.2 0.0
01/08:00am 10.3 8.4 4.9 69 2.5 S 4 6 2 3 1019.9 1019.6 0.0
01/07:30am 7.4 5.3 3.8 78 1.6 S 4 6 2 3 1019.5 1019.2 0.0
01/07:00am 5.7 3.6 3.7 87 0.8 S 4 6 2 3 1019.2 1018.9 0.0
01/06:30am 4.5 2.9 2.5 87 0.8 CALM 0 0 0 0 1019.0 1018.7 0.0
01/06:00am 5.8 3.1 3.5 85 1.0 SE 7 7 4 4 1018.8 1018.5 0.0
01/05:30am 5.7 3.1 3.2 84 1.1 SSE 6 7 3 4 1018.3 1018.0 0.0
01/05:00am 5.8 3.3 3.8 87 0.9 S 6 6 3 3 1018.0 1017.7 0.0
01/04:30am 6.0 3.9 3.7 85 1.0 SSW 4 7 2 4 1017.8 1017.5 0.0
01/04:00am 6.1 4.7 3.6 84 1.1 CALM 0 0 0 0 1017.9 1017.6 0.0
01/03:30am 6.1 4.7 3.8 85 1.0 CALM 0 0 0 0 1018.0 1017.7 0.0
01/03:00am 6.8 5.3 2.9 76 1.6 CALM 0 4 0 2 1017.8 1017.5 0.0
01/02:30am 8.0 5.2 3.3 72 2.0 SSE 7 7 4 4 1017.6 1017.3 0.0
01/02:00am 8.1 5.3 3.4 72 2.0 SE 7 9 4 5 1017.7 1017.4 0.0
01/01:30am 8.4 5.3 3.5 71 2.1 SSE 9 11 5 6 1017.9 1017.6 0.0
01/01:00am 8.9 5.7 3.3 68 2.4 SSE 9 9 5 5 1018.1 1017.8 0.0
01/12:30am 9.2 6.5 3.6 68 2.5 SSE 7 7 4 4 1018.3 1018.0 0.0
01/12:00am 9.7 6.7 3.9 67 2.6 SSE 9 9 5 5 1018.3 1018.0 0.0
 
Date/Time
EST
Temp
°C
App
Temp
°C
Dew
Point
Rel
Hum
%
Delta-T
°C
Wind Press
QNH
hPa
Press
MSL
hPa
Rain
since 9 am
mm
Dir
 
Spd
km/h
Gust
km/h
Spd
kts
Gust
kts
31/11:30pm 10.2 7.1 3.5 63 3.0 SSE 9 11 5 6 1018.2 1017.9 0.0
31/11:00pm 11.5 8.7 3.0 56 3.8 SE 7 9 4 5 1018.1 1017.8 0.0
31/10:30pm 11.4 7.9 3.4 58 3.6 SE 11 11 6 6 1018.2 1017.9 0.0
31/10:00pm 12.4 9.6 3.4 54 4.0 SSE 7 9 4 5 1018.1 1017.8 0.0
31/09:30pm 13.0 10.2 3.4 52 4.3 SSE 7 9 4 5 1017.9 1017.6 0.0
31/09:00pm 14.0 11.1 2.6 46 5.1 SSE 7 7 4 4 1017.5 1017.2 0.0
31/08:30pm 14.2 11.1 3.4 48 4.9 SE 9 11 5 6 1017.4 1017.1 0.0
31/08:00pm 15.2 12.4 3.4 45 5.4 ESE 7 9 4 5 1017.2 1016.9 0.0
31/07:30pm 15.8 12.8 3.9 45 5.6 SE 9 9 5 5 1016.8 1016.4 0.0
31/07:00pm 16.8 14.2 4.2 43 6.0 SE 7 9 4 5 1016.2 1015.9 0.0
31/06:30pm 17.6 14.7 4.6 42 6.3 SE 9 9 5 5 1015.7 1015.4 0.0
31/06:00pm 19.6 16.1 3.7 35 7.6 SE 11 13 6 7 1015.4 1015.1 0.0
31/05:30pm 22.1 19.9 3.3 29 9.1 SE 4 4 2 2 1015.4 1015.1 0.0
31/05:00pm 22.8 20.8 2.3 26 9.8 SE 2 6 1 3 1015.2 1014.9 0.0
31/04:30pm 23.1 20.8 2.6 26 9.9 NE 4 7 2 4 1015.1 1014.8 0.0
31/04:00pm 23.0 21.0 2.5 26 9.8 ESE 2 4 1 2 1015.0 1014.7 0.0
31/03:30pm 22.9 19.6 2.4 26 9.8 NNE 9 13 5 7 1015.0 1014.7 0.0
31/03:00pm 22.7 19.5 3.3 28 9.4 SE 9 17 5 9 1015.1 1014.8 0.0
31/02:30pm 22.8 19.9 2.8 27 9.6 SSE 7 17 4 9 1015.7 1015.4 0.0
31/02:00pm 22.9 20.1 2.9 27 9.7 W 7 19 4 10 1016.4 1016.1 0.0
31/01:30pm 22.5 19.3 3.1 28 9.4 WSW 9 19 5 10 1016.8 1016.4 0.0
31/01:00pm 21.7 18.9 2.9 29 9.0 S 7 17 4 9 1017.4 1017.1 0.0
31/12:30pm 21.0 18.5 3.7 32 8.4 SW 6 11 3 6 1018.0 1017.7 0.0
31/12:00pm 19.6 16.9 2.9 33 7.9 SSE 6 11 3 6 1018.5 1018.2 0.0
31/11:30am 18.7 16.0 2.5 34 7.5 W 6 13 3 7 1019.1 1018.8 0.0
31/11:00am 17.6 13.9 2.4 36 7.0 SE 11 19 6 10 1019.6 1019.3 0.0
31/10:30am 17.2 14.0 2.8 38 6.7 S 9 17 5 9 1020.0 1019.7 0.0
31/10:00am 17.2 13.7 3.5 40 6.4 SE 11 19 6 10 1020.1 1019.8 0.0
31/09:30am 15.6 12.8 3.1 43 5.7 S 7 11 4 6 1020.4 1020.1 0.0
31/09:00am 14.9 12.4 4.9 51 4.7 SSE 7 11 4 6 1020.5 1020.2 0.0
31/08:30am 12.7 9.6 5.4 61 3.4 SSE 11 15 6 8 1020.3 1020.0 0.0
31/08:00am 11.3 9.1 6.0 70 2.5 SSE 7 9 4 5 1020.0 1019.7 0.0
31/07:30am 9.4 7.0 5.2 75 1.9 SSE 7 9 4 5 1019.9 1019.6 0.0
31/07:00am 7.7 5.3 5.3 85 1.1 SE 7 9 4 5 1019.4 1019.1 0.0
31/06:30am 6.6 4.1 4.9 89 0.8 SE 7 7 4 4 1018.9 1018.6 0.0
31/06:00am 6.4 3.9 4.6 88 0.8 SSE 7 7 4 4 1018.6 1018.3 0.0
31/05:30am 6.9 4.5 5.2 89 0.8 SE 7 9 4 5 1018.4 1018.1 0.0
31/05:00am 7.5 5.2 5.5 87 0.9 SE 7 7 4 4 1018.3 1018.0 0.0
31/04:30am 7.6 5.3 5.7 88 0.9 SE 7 7 4 4 1018.2 1017.9 0.0
31/04:00am 7.7 5.4 5.7 87 0.9 SSE 7 7 4 4 1018.0 1017.7 0.0
31/03:30am 8.0 5.7 5.8 86 1.0 SE 7 9 4 5 1018.0 1017.7 0.0
31/03:00am 8.5 6.2 5.8 83 1.2 SSE 7 9 4 5 1018.3 1018.0 0.0
31/02:30am 8.7 6.5 6.3 85 1.1 SE 7 9 4 5 1018.3 1018.0 0.0
31/02:00am 8.9 6.7 6.0 82 1.3 SE 7 9 4 5 1018.3 1018.0 0.0
31/01:30am 9.6 7.4 6.1 79 1.6 SE 7 9 4 5 1018.7 1018.4 0.0
31/01:00am 10.6 8.5 6.6 76 1.9 SE 7 9 4 5 1019.0 1018.7 0.0
31/12:30am 10.7 8.6 6.8 77 1.9 SE 7 9 4 5 1019.1 1018.8 0.0
31/12:00am 10.9 8.8 6.8 76 2.0 ESE 7 9 4 5 1019.0 1018.7 0.0
 
Date/Time
EST
Temp
°C
App
Temp
°C
Dew
Point
Rel
Hum
%
Delta-T
°C
Wind Press
QNH
hPa
Press
MSL
hPa
Rain
since 9 am
mm
Dir
 
Spd
km/h
Gust
km/h
Spd
kts
Gust
kts
30/11:30pm 10.9 8.8 6.6 75 2.1 SE 7 7 4 4 1019.0 1018.7 0.0
30/11:00pm 11.8 9.9 6.5 70 2.5 SE 6 6 3 3 1019.0 1018.7 0.0
30/10:30pm 11.9 9.9 6.2 68 2.7 SSE 6 6 3 3 1019.0 1018.7 0.0
30/10:00pm 13.5 11.2 5.7 59 3.7 S 7 11 4 6 1018.9 1018.6 0.0
30/09:30pm 13.4 11.2 6.3 62 3.4 SSE 7 9 4 5 1018.8 1018.5 0.0
30/09:00pm 14.0 11.6 6.8 62 3.5 SSE 9 13 5 7 1018.7 1018.4 0.0
30/08:30pm 15.1 12.5 5.9 54 4.5 SSE 9 11 5 6 1018.3 1018.0 0.0
30/08:00pm 14.8 13.1 7.4 61 3.7 S 6 7 3 4 1018.1 1017.8 0.0
30/07:30pm 16.4 14.7 6.0 50 5.1 SE 4 6 2 3 1017.6 1017.3 0.0
30/07:00pm 17.2 15.1 5.8 47 5.6 SE 6 9 3 5 1017.2 1016.9 0.0
30/06:30pm 17.6 15.0 6.2 47 5.7 SE 9 9 5 5 1016.7 1016.3 0.0
30/06:00pm 19.1 16.4 5.6 41 6.7 SE 9 11 5 6 1016.3 1016.0 0.0
30/05:30pm 21.1 18.5 5.9 37 7.7 SE 9 13 5 7 1016.0 1015.7 0.0
30/05:00pm 21.2 17.6 5.1 35 8.0 SE 13 19 7 10 1015.9 1015.6 0.0
30/04:30pm 22.5 19.5 5.9 34 8.5 SSE 11 17 6 9 1015.7 1015.4 0.0
30/04:00pm 23.3 20.3 6.1 33 8.8 SSE 11 19 6 10 1015.8 1015.5 0.0
30/03:30pm 23.1 19.7 6.0 33 8.8 SSE 13 20 7 11 1015.9 1015.6 0.0
30/03:00pm 22.9 20.2 5.8 33 8.7 S 9 20 5 11 1016.2 1015.9 0.0
30/02:30pm 23.1 21.0 6.8 35 8.5 SSW 7 17 4 9 1016.4 1016.1 0.0
30/02:00pm 22.8 20.8 6.1 34 8.6 SSW 6 15 3 8 1016.8 1016.4 0.0
30/01:30pm 21.4 18.3 5.7 36 7.9 SSE 11 20 6 11 1017.5 1017.2 0.0
30/01:00pm 21.4 19.1 7.3 40 7.3 SW 9 19 5 10 1017.8 1017.5 0.0
30/12:30pm 21.2 19.5 8.5 44 6.7 SE 7 17 4 9 1018.4 1018.1 0.0
30/12:00pm 21.1 18.8 9.0 46 6.5 S 11 17 6 9 1019.1 1018.8 0.0
30/11:30am 19.5 16.5 7.6 46 6.2 SSW 13 22 7 12 1019.6 1019.3 0.0
30/11:00am 19.0 16.1 8.1 49 5.7 SSE 13 20 7 11 1020.1 1019.8 0.0
30/10:30am 18.8 15.7 8.7 52 5.3 SSE 15 22 8 12 1020.4 1020.1 0.0
30/10:00am 17.4 14.0 9.3 59 4.3 SSE 17 26 9 14 1020.7 1020.4 0.0
30/09:30am 16.4 13.4 9.3 63 3.7 S 15 22 8 12 1020.7 1020.4 0.0
30/09:00am 15.3 12.6 8.8 65 3.3 S 13 22 7 12 1020.7 1020.4 3.8
30/08:30am 14.1 11.8 8.9 71 2.7 SSE 11 17 6 9 1020.5 1020.2 3.8
30/08:00am 12.9 11.5 9.5 80 1.7 SSE 7 9 4 5 1020.4 1020.1 3.8
30/07:30am 11.8 10.3 9.2 84 1.3 S 7 11 4 6 1020.2 1019.9 3.8
30/07:00am 10.9 9.4 9.2 89 0.9 S 7 9 4 5 1019.9 1019.6 3.8
30/06:30am 10.7 8.8 9.1 90 0.8 S 9 13 5 7 1019.5 1019.2 3.8
30/06:00am 10.7 9.2 9.3 91 0.7 S 7 13 4 7 1019.1 1018.8 3.8
30/05:30am 11.2 10.1 9.8 91 0.7 S 6 9 3 5 1019.1 1018.8 3.8
30/05:00am 11.2 10.1 10.0 92 0.6 S 6 7 3 4 1019.0 1018.7 3.8
30/04:30am 12.1 11.2 10.7 91 0.7 S 6 7 3 4 1019.4 1019.1 3.8
30/04:00am 12.4 12.4 11.0 91 0.7 NNW 2 4 1 2 1019.5 1019.2 3.8
30/03:30am 12.3 11.2 10.5 89 0.9 SSE 7 11 4 6 1018.6 1018.3 3.8
30/03:00am 12.6 11.3 11.3 92 0.7 SSE 9 13 5 7 1018.4 1018.1 3.8
30/02:30am 12.8 11.6 11.7 93 0.6 SSE 9 13 5 7 1018.7 1018.4 3.8
30/02:00am 13.4 13.0 12.3 93 0.6 SSW 6 11 3 6 1019.4 1019.1 3.8
30/01:30am 13.5 12.9 12.4 93 0.6 S 7 15 4 8 1019.6 1019.3 3.6
30/01:00am 13.5 13.0 12.2 92 0.7 S 6 9 3 5 1020.3 1020.0 3.6
30/12:30am 13.0 11.7 11.4 90 0.9 SE 9 11 5 6 1020.1 1019.8 3.6
30/12:00am 13.7 13.1 11.8 88 1.0 S 6 9 3 5 1020.3 1020.0 3.6
 
Date/Time
EST
Temp
°C
App
Temp
°C
Dew
Point
Rel
Hum
%
Delta-T
°C
Wind Press
QNH
hPa
Press
MSL
hPa
Rain
since 9 am
mm
Dir
 
Spd
km/h
Gust
km/h
Spd
kts
Gust
kts
29/11:30pm 14.0 13.3 11.9 87 1.1 S 7 11 4 6 1020.0 1019.7 3.6
29/11:00pm 14.1 13.6 12.1 88 1.1 SSE 6 9 3 5 1020.4 1020.1 3.6
29/10:30pm 14.0 13.5 12.2 89 1.0 S 6 11 3 6 1020.2 1019.9 3.6
29/10:00pm 14.1 13.5 12.3 89 1.0 S 7 13 4 7 1019.8 1019.5 3.6
29/09:30pm 14.4 14.2 13.0 91 0.8 S 6 11 3 6 1019.9 1019.6 3.6
29/09:00pm 14.7 14.0 13.2 91 0.8 S 9 13 5 7 1019.8 1019.5 3.6
29/08:30pm 14.4 13.7 13.1 92 0.7 S 9 15 5 8 1019.7 1019.4 3.6
29/08:00pm 14.5 13.9 13.4 93 0.6 SSE 9 13 5 7 1019.8 1019.5 3.6

Other Formats:

Comma delimited format used in spreadsheet applications
http://www.bom.gov.au/fwo/IDQ60801/IDQ60801.94396.axf

JavaScript Object Notation format (JSON) in row-major order
http://www.bom.gov.au/fwo/IDQ60801/IDQ60801.94396.json